Glen Allen, VA

12:08 AM EDT on June 02, 2015 (GMT -0400)
Glen Allen Woodman 295 | | Change Station
CLOSE
Current Station
Personal Weather Station
Location: Glen Allen, VA
Elevation: 223 ft
Nearby Weather Stations

Elev 223 ft 37.67 °N, 77.49 °W | Updated 18 seconds ago

Rain
Rain
69.3 °F
Feels Like 69.3 °F
N
-
Wind Variable Wind from North

Today
High -- | Low -- °F
--% Chance of Precip.
Yesterday
High -- | Low -- °F
Precip. -- in
5:49 AM 8:26 PM
Full, 100% visible
Pressure 30.05 in
Visibility 10.0 miles
Clouds Scattered Clouds 700 ft
Mostly Cloudy 1100 ft
Overcast 5500 ft
Dew Point 68 °F
Humidity 96%
Rainfall -999.00 in
Snow Depth Not available.
UV 0 out of 12
Pollen 7.30 out of 12
Air Quality Not available.
Flu Activity Sporadic
SPECI KOFP 020401Z AUTO 35005KT 10SM -RA SCT007 BKN011 OVC055 21/19 A3005 RMK AO2 LTG DSNT NW-NE RAB01 P0000 T02060194

More Conditions Fewer Conditions

Pressure 30.05 in
Visibility 10.0 miles
Clouds Scattered Clouds 700 ft
Mostly Cloudy 1100 ft
Overcast 5500 ft
Dew Point 68 °F
Humidity 96%
Rainfall -999.00 in
Snow Depth Not available.
UV 0 out of 12
Pollen 7.30 out of 12
Air Quality Not available.
Flu Activity Sporadic
SPECI KOFP 020401Z AUTO 35005KT 10SM -RA SCT007 BKN011 OVC055 21/19 A3005 RMK AO2 LTG DSNT NW-NE RAB01 P0000 T02060194

More Conditions Fewer Conditions

10-Day Weather Forecast

Almanac

Astronomy

Jun. 02, 2015 Rise Set
Actual Time
Civil Twilight
Nautical Twilight
Astronomical Twilight
Moon
Length of Visible Light
Length of Day
Tomorrow will be .
, % of the Moon is Illuminated

Today's Extremes

State Highs State Lows

Community

WunderPhotos

Upload Photos

1,825,891 photos uploaded!

WunderBlogs® & News

Nearby

Air Quality

  Air Quality AQ Index Pollutant
Not available.

Snow Depth

Station Depth Elevation

Earthquake Activity

City Distance Mag. Time & Date
Minimum magnitude displayed is 2.5.

Coastal Water Temperatures

Place Temperature

Stations

Nearby Weather Stations

Station Location Temp. Windchill Dew Point Humidity Wind Precip. Elev Updated Type